sensor_id;sensor_type;location;lat;lon;timestamp;temperature;humidity
73777;DHT22;62088;50.240;2.696;2023-02-03T00:02:09;9.60;82.90
73777;DHT22;62088;50.240;2.696;2023-02-03T00:04:36;9.50;82.80
73777;DHT22;62088;50.240;2.696;2023-02-03T00:07:03;9.50;82.80
73777;DHT22;62088;50.240;2.696;2023-02-03T00:09:30;9.60;82.80
73777;DHT22;62088;50.240;2.696;2023-02-03T00:11:57;9.50;82.80
73777;DHT22;62088;50.240;2.696;2023-02-03T00:14:24;9.50;82.80
73777;DHT22;62088;50.240;2.696;2023-02-03T00:16:51;9.50;82.80
73777;DHT22;62088;50.240;2.696;2023-02-03T00:19:18;9.50;82.70
73777;DHT22;62088;50.240;2.696;2023-02-03T00:21:45;9.60;82.70
73777;DHT22;62088;50.240;2.696;2023-02-03T00:24:12;9.50;82.70
73777;DHT22;62088;50.240;2.696;2023-02-03T00:26:42;9.50;82.70
73777;DHT22;62088;50.240;2.696;2023-02-03T00:29:09;9.50;82.70
73777;DHT22;62088;50.240;2.696;2023-02-03T00:31:36;9.50;82.70
73777;DHT22;62088;50.240;2.696;2023-02-03T00:34:04;9.50;82.60
73777;DHT22;62088;50.240;2.696;2023-02-03T00:36:31;9.50;82.60
73777;DHT22;62088;50.240;2.696;2023-02-03T00:38:59;9.50;82.60
73777;DHT22;62088;50.240;2.696;2023-02-03T00:41:29;9.50;82.60
73777;DHT22;62088;50.240;2.696;2023-02-03T00:43:57;9.50;82.60
73777;DHT22;62088;50.240;2.696;2023-02-03T00:46:24;9.50;82.30
73777;DHT22;62088;50.240;2.696;2023-02-03T00:48:51;9.50;82.30
73777;DHT22;62088;50.240;2.696;2023-02-03T00:51:18;9.50;82.30
73777;DHT22;62088;50.240;2.696;2023-02-03T00:53:47;9.50;82.20
73777;DHT22;62088;50.240;2.696;2023-02-03T00:56:14;9.50;82.20
73777;DHT22;62088;50.240;2.696;2023-02-03T00:58:43;9.50;82.20
73777;DHT22;62088;50.240;2.696;2023-02-03T01:01:10;9.50;82.20
73777;DHT22;62088;50.240;2.696;2023-02-03T01:03:37;9.50;82.20
73777;DHT22;62088;50.240;2.696;2023-02-03T01:08:36;9.50;82.20
73777;DHT22;62088;50.240;2.696;2023-02-03T01:11:13;9.50;82.20
73777;DHT22;62088;50.240;2.696;2023-02-03T01:13:40;9.40;82.20
73777;DHT22;62088;50.240;2.696;2023-02-03T01:16:12;9.50;82.00
73777;DHT22;62088;50.240;2.696;2023-02-03T01:18:40;9.40;81.90
73777;DHT22;62088;50.240;2.696;2023-02-03T01:21:12;9.50;81.80
73777;DHT22;62088;50.240;2.696;2023-02-03T01:23:39;9.50;81.70
73777;DHT22;62088;50.240;2.696;2023-02-03T01:26:09;9.40;81.70
73777;DHT22;62088;50.240;2.696;2023-02-03T01:28:37;9.50;81.60
73777;DHT22;62088;50.240;2.696;2023-02-03T01:31:14;9.50;81.60
73777;DHT22;62088;50.240;2.696;2023-02-03T01:33:42;9.50;81.60
73777;DHT22;62088;50.240;2.696;2023-02-03T01:36:15;9.50;81.60
73777;DHT22;62088;50.240;2.696;2023-02-03T01:38:43;9.50;81.70
73777;DHT22;62088;50.240;2.696;2023-02-03T01:41:13;9.40;81.80
73777;DHT22;62088;50.240;2.696;2023-02-03T01:43:43;9.40;81.80
73777;DHT22;62088;50.240;2.696;2023-02-03T01:48:55;9.50;81.80
73777;DHT22;62088;50.240;2.696;2023-02-03T01:51:22;9.50;81.70
73777;DHT22;62088;50.240;2.696;2023-02-03T01:53:52;9.50;81.70
73777;DHT22;62088;50.240;2.696;2023-02-03T01:56:20;9.50;81.70
73777;DHT22;62088;50.240;2.696;2023-02-03T01:58:48;9.50;81.70
73777;DHT22;62088;50.240;2.696;2023-02-03T02:01:15;9.50;81.70
73777;DHT22;62088;50.240;2.696;2023-02-03T02:03:52;9.50;81.70
73777;DHT22;62088;50.240;2.696;2023-02-03T02:06:20;9.50;81.60
73777;DHT22;62088;50.240;2.696;2023-02-03T02:08:50;9.50;81.60
73777;DHT22;62088;50.240;2.696;2023-02-03T02:11:18;9.40;81.70
73777;DHT22;62088;50.240;2.696;2023-02-03T02:13:50;9.40;81.70
73777;DHT22;62088;50.240;2.696;2023-02-03T02:26:47;9.40;81.70
73777;DHT22;62088;50.240;2.696;2023-02-03T02:37:54;9.40;81.90
73777;DHT22;62088;50.240;2.696;2023-02-03T02:43:39;9.40;81.80
73777;DHT22;62088;50.240;2.696;2023-02-03T02:46:17;9.40;81.90
73777;DHT22;62088;50.240;2.696;2023-02-03T02:51:40;9.40;81.80
73777;DHT22;62088;50.240;2.696;2023-02-03T02:54:16;9.40;81.80
73777;DHT22;62088;50.240;2.696;2023-02-03T02:56:47;9.40;81.80
73777;DHT22;62088;50.240;2.696;2023-02-03T02:59:15;9.40;81.80
73777;DHT22;62088;50.240;2.696;2023-02-03T03:01:42;9.40;81.80
73777;DHT22;62088;50.240;2.696;2023-02-03T03:04:12;9.40;81.80
73777;DHT22;62088;50.240;2.696;2023-02-03T03:07:11;9.40;82.00
73777;DHT22;62088;50.240;2.696;2023-02-03T03:09:43;9.40;82.00
73777;DHT22;62088;50.240;2.696;2023-02-03T03:12:15;9.40;82.10
73777;DHT22;62088;50.240;2.696;2023-02-03T03:14:46;9.40;82.20
73777;DHT22;62088;50.240;2.696;2023-02-03T03:17:22;9.30;82.40
73777;DHT22;62088;50.240;2.696;2023-02-03T03:19:54;9.30;82.60
73777;DHT22;62088;50.240;2.696;2023-02-03T03:22:27;9.30;82.70
73777;DHT22;62088;50.240;2.696;2023-02-03T03:25:09;9.30;82.80
73777;DHT22;62088;50.240;2.696;2023-02-03T03:27:41;9.30;82.90
73777;DHT22;62088;50.240;2.696;2023-02-03T03:30:14;9.30;82.90
73777;DHT22;62088;50.240;2.696;2023-02-03T03:32:43;9.30;82.90
73777;DHT22;62088;50.240;2.696;2023-02-03T03:35:10;9.20;83.00
73777;DHT22;62088;50.240;2.696;2023-02-03T03:37:42;9.20;83.00
73777;DHT22;62088;50.240;2.696;2023-02-03T03:42:49;9.20;83.00
73777;DHT22;62088;50.240;2.696;2023-02-03T03:45:41;9.20;83.00
73777;DHT22;62088;50.240;2.696;2023-02-03T03:48:20;9.20;83.10
73777;DHT22;62088;50.240;2.696;2023-02-03T03:53:38;9.20;83.00
73777;DHT22;62088;50.240;2.696;2023-02-03T03:56:10;9.20;82.90
73777;DHT22;62088;50.240;2.696;2023-02-03T03:58:42;9.20;82.90
73777;DHT22;62088;50.240;2.696;2023-02-03T04:01:12;9.20;82.80
73777;DHT22;62088;50.240;2.696;2023-02-03T04:03:46;9.20;82.80
73777;DHT22;62088;50.240;2.696;2023-02-03T04:06:14;9.20;82.80
73777;DHT22;62088;50.240;2.696;2023-02-03T04:08:41;9.20;82.90
73777;DHT22;62088;50.240;2.696;2023-02-03T04:11:08;9.20;82.90
73777;DHT22;62088;50.240;2.696;2023-02-03T04:13:35;9.20;82.90
73777;DHT22;62088;50.240;2.696;2023-02-03T04:16:02;9.20;83.00
73777;DHT22;62088;50.240;2.696;2023-02-03T04:18:29;9.20;83.00
73777;DHT22;62088;50.240;2.696;2023-02-03T04:20:56;9.10;83.10
73777;DHT22;62088;50.240;2.696;2023-02-03T04:23:23;9.20;83.30
73777;DHT22;62088;50.240;2.696;2023-02-03T04:25:50;9.10;83.30
73777;DHT22;62088;50.240;2.696;2023-02-03T04:28:17;9.20;83.40
73777;DHT22;62088;50.240;2.696;2023-02-03T04:30:44;9.10;83.50
73777;DHT22;62088;50.240;2.696;2023-02-03T04:33:11;9.10;83.60
73777;DHT22;62088;50.240;2.696;2023-02-03T04:35:38;9.20;83.70
73777;DHT22;62088;50.240;2.696;2023-02-03T04:38:05;9.20;83.80
73777;DHT22;62088;50.240;2.696;2023-02-03T04:40:32;9.10;83.70
73777;DHT22;62088;50.240;2.696;2023-02-03T04:43:05;9.10;83.70
73777;DHT22;62088;50.240;2.696;2023-02-03T04:45:33;9.10;83.70
73777;DHT22;62088;50.240;2.696;2023-02-03T04:48:00;9.10;83.70
73777;DHT22;62088;50.240;2.696;2023-02-03T04:50:27;9.10;83.80
73777;DHT22;62088;50.240;2.696;2023-02-03T04:52:54;9.10;83.90
73777;DHT22;62088;50.240;2.696;2023-02-03T04:55:21;9.10;83.90
73777;DHT22;62088;50.240;2.696;2023-02-03T04:57:53;9.10;84.00
73777;DHT22;62088;50.240;2.696;2023-02-03T05:00:20;9.10;84.10
73777;DHT22;62088;50.240;2.696;2023-02-03T05:02:47;9.00;84.20
73777;DHT22;62088;50.240;2.696;2023-02-03T05:05:14;9.00;84.30
73777;DHT22;62088;50.240;2.696;2023-02-03T05:07:41;9.00;84.40
73777;DHT22;62088;50.240;2.696;2023-02-03T05:10:09;9.00;84.50
73777;DHT22;62088;50.240;2.696;2023-02-03T05:12:36;9.00;84.60
73777;DHT22;62088;50.240;2.696;2023-02-03T05:15:04;9.00;84.70
73777;DHT22;62088;50.240;2.696;2023-02-03T05:17:31;9.00;84.70
73777;DHT22;62088;50.240;2.696;2023-02-03T05:19:58;9.00;84.80
73777;DHT22;62088;50.240;2.696;2023-02-03T05:22:25;9.00;84.80
73777;DHT22;62088;50.240;2.696;2023-02-03T05:24:52;9.00;84.90
73777;DHT22;62088;50.240;2.696;2023-02-03T05:27:19;9.00;85.00
73777;DHT22;62088;50.240;2.696;2023-02-03T05:29:46;8.90;85.00
73777;DHT22;62088;50.240;2.696;2023-02-03T05:32:13;8.90;85.10
73777;DHT22;62088;50.240;2.696;2023-02-03T05:34:40;8.90;85.30
73777;DHT22;62088;50.240;2.696;2023-02-03T05:37:08;8.90;85.40
73777;DHT22;62088;50.240;2.696;2023-02-03T05:39:35;8.90;85.50
73777;DHT22;62088;50.240;2.696;2023-02-03T05:42:02;8.90;85.60
73777;DHT22;62088;50.240;2.696;2023-02-03T05:44:30;8.90;85.70
73777;DHT22;62088;50.240;2.696;2023-02-03T05:46:58;8.90;85.80
73777;DHT22;62088;50.240;2.696;2023-02-03T05:49:25;8.90;85.80
73777;DHT22;62088;50.240;2.696;2023-02-03T05:51:53;8.90;85.90
73777;DHT22;62088;50.240;2.696;2023-02-03T05:54:21;8.90;85.90
73777;DHT22;62088;50.240;2.696;2023-02-03T05:56:48;8.90;86.00
73777;DHT22;62088;50.240;2.696;2023-02-03T05:59:15;8.90;86.00
73777;DHT22;62088;50.240;2.696;2023-02-03T06:01:42;8.90;86.00
73777;DHT22;62088;50.240;2.696;2023-02-03T06:04:09;8.90;85.90
73777;DHT22;62088;50.240;2.696;2023-02-03T06:06:37;8.90;85.90
73777;DHT22;62088;50.240;2.696;2023-02-03T06:09:06;8.90;85.90
73777;DHT22;62088;50.240;2.696;2023-02-03T06:11:34;8.90;85.90
73777;DHT22;62088;50.240;2.696;2023-02-03T06:14:01;8.90;85.80
73777;DHT22;62088;50.240;2.696;2023-02-03T06:16:29;8.90;85.80
73777;DHT22;62088;50.240;2.696;2023-02-03T06:18:56;8.90;85.80
73777;DHT22;62088;50.240;2.696;2023-02-03T06:21:27;8.90;85.80
73777;DHT22;62088;50.240;2.696;2023-02-03T06:23:55;8.90;85.80
73777;DHT22;62088;50.240;2.696;2023-02-03T06:26:22;8.90;85.70
73777;DHT22;62088;50.240;2.696;2023-02-03T06:28:49;8.90;85.70
73777;DHT22;62088;50.240;2.696;2023-02-03T06:31:16;8.90;85.70
73777;DHT22;62088;50.240;2.696;2023-02-03T06:33:43;8.90;85.70
73777;DHT22;62088;50.240;2.696;2023-02-03T06:36:10;8.90;85.70
73777;DHT22;62088;50.240;2.696;2023-02-03T06:38:37;8.90;85.70
73777;DHT22;62088;50.240;2.696;2023-02-03T06:41:04;8.90;85.70
73777;DHT22;62088;50.240;2.696;2023-02-03T06:43:32;8.90;85.70
73777;DHT22;62088;50.240;2.696;2023-02-03T06:45:59;8.90;85.70
73777;DHT22;62088;50.240;2.696;2023-02-03T06:48:26;8.90;85.70
73777;DHT22;62088;50.240;2.696;2023-02-03T06:50:53;8.90;85.70
73777;DHT22;62088;50.240;2.696;2023-02-03T06:53:21;8.90;85.70
73777;DHT22;62088;50.240;2.696;2023-02-03T06:55:48;8.90;85.70
73777;DHT22;62088;50.240;2.696;2023-02-03T06:58:15;8.90;85.70
73777;DHT22;62088;50.240;2.696;2023-02-03T07:00:42;8.90;85.60
73777;DHT22;62088;50.240;2.696;2023-02-03T07:03:09;8.90;85.60
73777;DHT22;62088;50.240;2.696;2023-02-03T07:05:42;8.90;85.60
73777;DHT22;62088;50.240;2.696;2023-02-03T07:08:09;8.90;85.60
73777;DHT22;62088;50.240;2.696;2023-02-03T07:10:37;8.90;85.60
73777;DHT22;62088;50.240;2.696;2023-02-03T07:13:05;8.90;85.60
73777;DHT22;62088;50.240;2.696;2023-02-03T07:15:32;8.90;85.60
73777;DHT22;62088;50.240;2.696;2023-02-03T07:17:59;8.90;85.60
73777;DHT22;62088;50.240;2.696;2023-02-03T07:20:26;8.90;85.70
73777;DHT22;62088;50.240;2.696;2023-02-03T07:22:56;8.90;85.70
73777;DHT22;62088;50.240;2.696;2023-02-03T07:25:24;8.90;85.70
73777;DHT22;62088;50.240;2.696;2023-02-03T07:27:52;8.90;85.70
73777;DHT22;62088;50.240;2.696;2023-02-03T07:30:19;8.90;85.80
73777;DHT22;62088;50.240;2.696;2023-02-03T07:32:49;8.90;85.80
73777;DHT22;62088;50.240;2.696;2023-02-03T07:35:17;8.90;85.90
73777;DHT22;62088;50.240;2.696;2023-02-03T07:37:44;8.90;85.90
73777;DHT22;62088;50.240;2.696;2023-02-03T07:40:12;8.90;85.90
73777;DHT22;62088;50.240;2.696;2023-02-03T07:42:44;8.90;86.00
73777;DHT22;62088;50.240;2.696;2023-02-03T07:45:12;8.90;86.00
73777;DHT22;62088;50.240;2.696;2023-02-03T07:47:41;8.90;86.00
73777;DHT22;62088;50.240;2.696;2023-02-03T07:50:10;8.90;86.00
73777;DHT22;62088;50.240;2.696;2023-02-03T07:52:37;8.90;86.00
73777;DHT22;62088;50.240;2.696;2023-02-03T07:55:05;8.90;86.00
73777;DHT22;62088;50.240;2.696;2023-02-03T07:57:32;8.90;86.00
73777;DHT22;62088;50.240;2.696;2023-02-03T07:59:59;8.90;86.00
73777;DHT22;62088;50.240;2.696;2023-02-03T08:02:26;8.90;86.00
73777;DHT22;62088;50.240;2.696;2023-02-03T08:04:53;8.90;86.10
73777;DHT22;62088;50.240;2.696;2023-02-03T08:07:20;8.90;86.10
73777;DHT22;62088;50.240;2.696;2023-02-03T08:09:47;8.90;86.10
73777;DHT22;62088;50.240;2.696;2023-02-03T08:12:14;9.00;86.20
73777;DHT22;62088;50.240;2.696;2023-02-03T08:14:41;8.90;86.10
73777;DHT22;62088;50.240;2.696;2023-02-03T08:17:08;9.00;86.20
73777;DHT22;62088;50.240;2.696;2023-02-03T08:19:35;8.90;86.20
73777;DHT22;62088;50.240;2.696;2023-02-03T08:22:02;8.90;86.30
73777;DHT22;62088;50.240;2.696;2023-02-03T08:24:29;9.00;86.30
73777;DHT22;62088;50.240;2.696;2023-02-03T08:26:56;9.00;86.30
73777;DHT22;62088;50.240;2.696;2023-02-03T08:29:23;9.00;86.30
73777;DHT22;62088;50.240;2.696;2023-02-03T08:31:50;9.00;86.30
73777;DHT22;62088;50.240;2.696;2023-02-03T08:34:17;9.10;86.30
73777;DHT22;62088;50.240;2.696;2023-02-03T08:36:44;9.10;86.30
73777;DHT22;62088;50.240;2.696;2023-02-03T08:39:11;9.10;86.30
73777;DHT22;62088;50.240;2.696;2023-02-03T08:41:38;9.10;86.40
73777;DHT22;62088;50.240;2.696;2023-02-03T08:44:05;9.10;86.40
73777;DHT22;62088;50.240;2.696;2023-02-03T08:46:34;9.10;86.40
73777;DHT22;62088;50.240;2.696;2023-02-03T08:49:10;9.20;86.50
73777;DHT22;62088;50.240;2.696;2023-02-03T08:51:37;9.20;86.50
73777;DHT22;62088;50.240;2.696;2023-02-03T08:54:04;9.20;86.50
73777;DHT22;62088;50.240;2.696;2023-02-03T08:56:31;9.20;86.50
73777;DHT22;62088;50.240;2.696;2023-02-03T08:58:59;9.20;86.40
73777;DHT22;62088;50.240;2.696;2023-02-03T09:01:27;9.20;86.40
73777;DHT22;62088;50.240;2.696;2023-02-03T09:03:54;9.30;86.30
73777;DHT22;62088;50.240;2.696;2023-02-03T09:06:21;9.30;86.30
73777;DHT22;62088;50.240;2.696;2023-02-03T09:08:51;9.30;86.20
73777;DHT22;62088;50.240;2.696;2023-02-03T09:11:18;9.40;86.10
73777;DHT22;62088;50.240;2.696;2023-02-03T09:13:45;9.40;86.10
73777;DHT22;62088;50.240;2.696;2023-02-03T09:16:16;9.40;86.00
73777;DHT22;62088;50.240;2.696;2023-02-03T09:18:44;9.40;85.80
73777;DHT22;62088;50.240;2.696;2023-02-03T09:21:12;9.40;85.80
73777;DHT22;62088;50.240;2.696;2023-02-03T09:24:01;9.50;85.80
73777;DHT22;62088;50.240;2.696;2023-02-03T09:26:28;9.50;85.80
73777;DHT22;62088;50.240;2.696;2023-02-03T09:28:55;9.50;85.80
73777;DHT22;62088;50.240;2.696;2023-02-03T09:31:22;9.50;85.60
73777;DHT22;62088;50.240;2.696;2023-02-03T09:33:49;9.50;85.50
73777;DHT22;62088;50.240;2.696;2023-02-03T09:36:17;9.60;85.50
73777;DHT22;62088;50.240;2.696;2023-02-03T09:38:44;9.60;85.50
73777;DHT22;62088;50.240;2.696;2023-02-03T09:47:09;9.70;85.30
73777;DHT22;62088;50.240;2.696;2023-02-03T09:49:49;9.80;85.10
73777;DHT22;62088;50.240;2.696;2023-02-03T09:52:23;9.90;85.00
73777;DHT22;62088;50.240;2.696;2023-02-03T09:57:24;9.80;84.40
73777;DHT22;62088;50.240;2.696;2023-02-03T09:59:54;9.90;84.30
73777;DHT22;62088;50.240;2.696;2023-02-03T10:02:36;9.90;84.20
73777;DHT22;62088;50.240;2.696;2023-02-03T10:10:54;9.90;83.80
73777;DHT22;62088;50.240;2.696;2023-02-03T10:16:34;9.90;83.90
73777;DHT22;62088;50.240;2.696;2023-02-03T10:19:10;9.90;83.90
73777;DHT22;62088;50.240;2.696;2023-02-03T10:21:54;9.90;83.80
73777;DHT22;62088;50.240;2.696;2023-02-03T10:27:55;10.00;83.90
73777;DHT22;62088;50.240;2.696;2023-02-03T10:30:26;10.10;83.80
73777;DHT22;62088;50.240;2.696;2023-02-03T10:33:15;10.20;83.90
73777;DHT22;62088;50.240;2.696;2023-02-03T10:35:54;10.30;83.80
73777;DHT22;62088;50.240;2.696;2023-02-03T10:41:07;10.40;83.80
73777;DHT22;62088;50.240;2.696;2023-02-03T10:43:35;10.40;83.10
73777;DHT22;62088;50.240;2.696;2023-02-03T10:46:16;10.50;82.70
73777;DHT22;62088;50.240;2.696;2023-02-03T10:48:43;10.50;82.70
73777;DHT22;62088;50.240;2.696;2023-02-03T10:53:50;10.60;82.50
73777;DHT22;62088;50.240;2.696;2023-02-03T10:56:25;10.60;82.20
73777;DHT22;62088;50.240;2.696;2023-02-03T10:58:57;10.60;82.10
73777;DHT22;62088;50.240;2.696;2023-02-03T11:01:41;10.60;82.10
73777;DHT22;62088;50.240;2.696;2023-02-03T11:04:27;10.60;81.80
73777;DHT22;62088;50.240;2.696;2023-02-03T11:07:04;10.60;81.70
73777;DHT22;62088;50.240;2.696;2023-02-03T11:09:39;10.60;81.40
73777;DHT22;62088;50.240;2.696;2023-02-03T11:12:19;10.60;81.50
73777;DHT22;62088;50.240;2.696;2023-02-03T11:14:48;10.60;81.60
73777;DHT22;62088;50.240;2.696;2023-02-03T11:17:21;10.70;81.80
73777;DHT22;62088;50.240;2.696;2023-02-03T11:19:53;10.70;81.90
73777;DHT22;62088;50.240;2.696;2023-02-03T11:22:34;10.70;81.90
73777;DHT22;62088;50.240;2.696;2023-02-03T11:25:04;10.70;81.70
73777;DHT22;62088;50.240;2.696;2023-02-03T11:27:42;10.70;81.70
73777;DHT22;62088;50.240;2.696;2023-02-03T11:32:44;10.80;81.70
73777;DHT22;62088;50.240;2.696;2023-02-03T11:35:20;10.70;81.70
73777;DHT22;62088;50.240;2.696;2023-02-03T11:37:52;10.70;81.70
73777;DHT22;62088;50.240;2.696;2023-02-03T11:53:44;10.60;81.50
73777;DHT22;62088;50.240;2.696;2023-02-03T12:01:48;10.60;81.70
73777;DHT22;62088;50.240;2.696;2023-02-03T12:17:48;10.60;81.80
73777;DHT22;62088;50.240;2.696;2023-02-03T12:30:40;10.60;81.70
73777;DHT22;62088;50.240;2.696;2023-02-03T12:33:16;10.60;81.70
73777;DHT22;62088;50.240;2.696;2023-02-03T12:41:14;10.60;81.90
73777;DHT22;62088;50.240;2.696;2023-02-03T12:43:44;10.70;82.00
73777;DHT22;62088;50.240;2.696;2023-02-03T12:51:30;10.80;81.50
73777;DHT22;62088;50.240;2.696;2023-02-03T12:56:53;10.80;81.60
73777;DHT22;62088;50.240;2.696;2023-02-03T12:59:23;10.80;81.70
73777;DHT22;62088;50.240;2.696;2023-02-03T13:01:56;10.90;81.60
73777;DHT22;62088;50.240;2.696;2023-02-03T13:04:44;10.90;81.30
73777;DHT22;62088;50.240;2.696;2023-02-03T13:10:11;10.90;81.10
73777;DHT22;62088;50.240;2.696;2023-02-03T13:12:43;10.90;81.30
73777;DHT22;62088;50.240;2.696;2023-02-03T13:17:55;10.90;81.20
73777;DHT22;62088;50.240;2.696;2023-02-03T13:20:34;10.90;81.20
73777;DHT22;62088;50.240;2.696;2023-02-03T13:23:09;10.90;81.10
73777;DHT22;62088;50.240;2.696;2023-02-03T13:31:17;10.90;81.10
73777;DHT22;62088;50.240;2.696;2023-02-03T13:42:27;10.90;81.00
73777;DHT22;62088;50.240;2.696;2023-02-03T13:47:46;10.90;81.00
73777;DHT22;62088;50.240;2.696;2023-02-03T13:50:27;11.00;81.10
73777;DHT22;62088;50.240;2.696;2023-02-03T13:57:57;11.00;80.90
73777;DHT22;62088;50.240;2.696;2023-02-03T14:03:39;11.00;80.90
73777;DHT22;62088;50.240;2.696;2023-02-03T14:06:53;11.00;80.90
73777;DHT22;62088;50.240;2.696;2023-02-03T14:08:59;11.00;81.00
73777;DHT22;62088;50.240;2.696;2023-02-03T14:19:03;11.10;81.30
73777;DHT22;62088;50.240;2.696;2023-02-03T14:21:39;11.10;81.20
73777;DHT22;62088;50.240;2.696;2023-02-03T14:24:11;11.10;81.10
73777;DHT22;62088;50.240;2.696;2023-02-03T14:26:42;11.20;81.10
73777;DHT22;62088;50.240;2.696;2023-02-03T14:29:24;11.20;81.10
73777;DHT22;62088;50.240;2.696;2023-02-03T14:31:58;11.20;81.00
73777;DHT22;62088;50.240;2.696;2023-02-03T14:34:39;11.10;80.70
73777;DHT22;62088;50.240;2.696;2023-02-03T14:48:09;11.00;80.50
73777;DHT22;62088;50.240;2.696;2023-02-03T14:58:27;11.00;80.70
73777;DHT22;62088;50.240;2.696;2023-02-03T15:00:57;11.00;80.90
73777;DHT22;62088;50.240;2.696;2023-02-03T15:03:26;11.00;80.90
73777;DHT22;62088;50.240;2.696;2023-02-03T15:06:04;11.00;80.90
73777;DHT22;62088;50.240;2.696;2023-02-03T15:11:27;10.90;81.00
73777;DHT22;62088;50.240;2.696;2023-02-03T15:17:03;10.90;80.90
73777;DHT22;62088;50.240;2.696;2023-02-03T15:19:41;10.90;80.90
73777;DHT22;62088;50.240;2.696;2023-02-03T15:22:28;10.90;81.00
73777;DHT22;62088;50.240;2.696;2023-02-03T15:24:59;10.80;81.00
73777;DHT22;62088;50.240;2.696;2023-02-03T15:27:29;10.80;80.90
73777;DHT22;62088;50.240;2.696;2023-02-03T15:29:57;10.80;80.80
73777;DHT22;62088;50.240;2.696;2023-02-03T15:32:36;10.70;80.90
73777;DHT22;62088;50.240;2.696;2023-02-03T15:35:10;10.70;80.90
73777;DHT22;62088;50.240;2.696;2023-02-03T15:37:41;10.70;81.00
73777;DHT22;62088;50.240;2.696;2023-02-03T15:40:18;10.70;81.10
73777;DHT22;62088;50.240;2.696;2023-02-03T15:45:40;10.70;81.40
73777;DHT22;62088;50.240;2.696;2023-02-03T15:51:40;10.60;81.70
73777;DHT22;62088;50.240;2.696;2023-02-03T15:57:04;10.50;81.80
73777;DHT22;62088;50.240;2.696;2023-02-03T16:02:53;10.50;81.90
73777;DHT22;62088;50.240;2.696;2023-02-03T16:05:32;10.50;81.90
73777;DHT22;62088;50.240;2.696;2023-02-03T16:08:33;10.40;81.90
73777;DHT22;62088;50.240;2.696;2023-02-03T16:11:01;10.40;82.00
73777;DHT22;62088;50.240;2.696;2023-02-03T16:13:45;10.40;82.00
73777;DHT22;62088;50.240;2.696;2023-02-03T16:18:57;10.40;82.10
73777;DHT22;62088;50.240;2.696;2023-02-03T16:21:42;10.40;82.10
73777;DHT22;62088;50.240;2.696;2023-02-03T16:27:29;10.30;82.20
73777;DHT22;62088;50.240;2.696;2023-02-03T16:36:01;10.20;82.20
73777;DHT22;62088;50.240;2.696;2023-02-03T16:38:47;10.20;82.30
73777;DHT22;62088;50.240;2.696;2023-02-03T16:41:33;10.20;82.30
73777;DHT22;62088;50.240;2.696;2023-02-03T16:44:19;10.20;82.30
73777;DHT22;62088;50.240;2.696;2023-02-03T16:47:27;10.20;82.30
73777;DHT22;62088;50.240;2.696;2023-02-03T16:50:14;10.20;82.40
73777;DHT22;62088;50.240;2.696;2023-02-03T16:53:12;10.10;82.40
73777;DHT22;62088;50.240;2.696;2023-02-03T16:55:41;10.10;82.50
73777;DHT22;62088;50.240;2.696;2023-02-03T16:58:08;10.10;82.50
73777;DHT22;62088;50.240;2.696;2023-02-03T17:00:39;10.10;82.50
73777;DHT22;62088;50.240;2.696;2023-02-03T17:03:14;10.00;82.60
73777;DHT22;62088;50.240;2.696;2023-02-03T17:05:43;10.00;82.60
73777;DHT22;62088;50.240;2.696;2023-02-03T17:08:11;10.00;82.70
73777;DHT22;62088;50.240;2.696;2023-02-03T17:10:40;10.00;82.70
73777;DHT22;62088;50.240;2.696;2023-02-03T17:13:07;10.00;82.70
73777;DHT22;62088;50.240;2.696;2023-02-03T17:15:43;10.00;82.80
73777;DHT22;62088;50.240;2.696;2023-02-03T17:18:11;10.10;82.80
73777;DHT22;62088;50.240;2.696;2023-02-03T17:20:42;10.00;82.90
73777;DHT22;62088;50.240;2.696;2023-02-03T17:23:09;10.00;82.90
73777;DHT22;62088;50.240;2.696;2023-02-03T17:25:37;10.00;82.90
73777;DHT22;62088;50.240;2.696;2023-02-03T17:28:07;10.00;83.00
73777;DHT22;62088;50.240;2.696;2023-02-03T17:30:34;10.00;83.00
73777;DHT22;62088;50.240;2.696;2023-02-03T17:33:03;10.00;83.00
73777;DHT22;62088;50.240;2.696;2023-02-03T17:35:39;10.00;83.10
73777;DHT22;62088;50.240;2.696;2023-02-03T17:38:06;10.00;83.10
73777;DHT22;62088;50.240;2.696;2023-02-03T17:40:34;10.00;83.10
73777;DHT22;62088;50.240;2.696;2023-02-03T17:43:18;10.00;83.20
73777;DHT22;62088;50.240;2.696;2023-02-03T17:46:02;10.00;83.10
73777;DHT22;62088;50.240;2.696;2023-02-03T17:48:48;10.00;83.20
73777;DHT22;62088;50.240;2.696;2023-02-03T17:51:32;10.00;83.20
73777;DHT22;62088;50.240;2.696;2023-02-03T17:54:17;9.90;83.20
73777;DHT22;62088;50.240;2.696;2023-02-03T17:56:44;10.00;83.20
73777;DHT22;62088;50.240;2.696;2023-02-03T17:59:14;9.90;83.30
73777;DHT22;62088;50.240;2.696;2023-02-03T18:01:41;9.90;83.30
73777;DHT22;62088;50.240;2.696;2023-02-03T18:04:09;9.90;83.30
73777;DHT22;62088;50.240;2.696;2023-02-03T18:06:36;9.90;83.40
73777;DHT22;62088;50.240;2.696;2023-02-03T18:09:05;9.90;83.40
73777;DHT22;62088;50.240;2.696;2023-02-03T18:11:34;9.90;83.40
73777;DHT22;62088;50.240;2.696;2023-02-03T18:14:01;9.90;83.40
73777;DHT22;62088;50.240;2.696;2023-02-03T18:16:30;9.90;83.50
73777;DHT22;62088;50.240;2.696;2023-02-03T18:19:07;9.90;83.50
73777;DHT22;62088;50.240;2.696;2023-02-03T18:21:37;9.90;83.60
73777;DHT22;62088;50.240;2.696;2023-02-03T18:24:04;9.90;83.60
73777;DHT22;62088;50.240;2.696;2023-02-03T18:26:33;9.90;83.70
73777;DHT22;62088;50.240;2.696;2023-02-03T18:29:03;9.90;83.70
73777;DHT22;62088;50.240;2.696;2023-02-03T18:31:31;9.90;83.80
73777;DHT22;62088;50.240;2.696;2023-02-03T18:34:02;9.90;83.80
73777;DHT22;62088;50.240;2.696;2023-02-03T18:36:30;9.90;83.80
73777;DHT22;62088;50.240;2.696;2023-02-03T18:38:58;9.90;83.80
73777;DHT22;62088;50.240;2.696;2023-02-03T18:41:25;9.90;83.90
73777;DHT22;62088;50.240;2.696;2023-02-03T18:43:52;9.90;83.90
73777;DHT22;62088;50.240;2.696;2023-02-03T18:46:30;9.80;84.00
73777;DHT22;62088;50.240;2.696;2023-02-03T18:48:58;9.90;84.10
73777;DHT22;62088;50.240;2.696;2023-02-03T18:51:25;9.80;84.10
73777;DHT22;62088;50.240;2.696;2023-02-03T18:53:57;9.80;84.10
73777;DHT22;62088;50.240;2.696;2023-02-03T18:56:27;9.90;84.20
73777;DHT22;62088;50.240;2.696;2023-02-03T18:59:04;9.80;84.20
73777;DHT22;62088;50.240;2.696;2023-02-03T19:01:31;9.80;84.20
73777;DHT22;62088;50.240;2.696;2023-02-03T19:04:00;9.80;84.20
73777;DHT22;62088;50.240;2.696;2023-02-03T19:06:30;9.80;84.20
73777;DHT22;62088;50.240;2.696;2023-02-03T19:08:58;9.80;84.20
73777;DHT22;62088;50.240;2.696;2023-02-03T19:11:25;9.80;84.30
73777;DHT22;62088;50.240;2.696;2023-02-03T19:13:52;9.90;84.30
73777;DHT22;62088;50.240;2.696;2023-02-03T19:16:19;9.80;84.30
73777;DHT22;62088;50.240;2.696;2023-02-03T19:18:47;9.80;84.30
73777;DHT22;62088;50.240;2.696;2023-02-03T19:21:14;9.80;84.30
73777;DHT22;62088;50.240;2.696;2023-02-03T19:23:41;9.80;84.30
73777;DHT22;62088;50.240;2.696;2023-02-03T19:26:09;9.80;84.30
73777;DHT22;62088;50.240;2.696;2023-02-03T19:28:38;9.80;84.30
73777;DHT22;62088;50.240;2.696;2023-02-03T19:31:07;9.80;84.30
73777;DHT22;62088;50.240;2.696;2023-02-03T19:33:36;9.80;84.30